Map

Track Data

SID SEASON NUMBER BASIN SUBBASIN NAME ISO_TIME NATURE LAT LON WMO_WIND WMO_PRES WMO_AGENCY TRACK_TYPE DIST2LAND LANDFALL IFLAG USA_AGENCY USA_ATCF_ID USA_LAT USA_LON USA_RECORD USA_STATUS USA_WIND USA_PRES USA_SSHS USA_R34_NE USA_R34_SE USA_R34_SW USA_R34_NW USA_R50_NE USA_R50_SE USA_R50_SW USA_R50_NW USA_R64_NE USA_R64_SE USA_R64_SW USA_R64_NW USA_POCI USA_ROCI USA_RMW USA_EYE TOKYO_LAT TOKYO_LON TOKYO_GRADE TOKYO_WIND TOKYO_PRES TOKYO_R50_DIR TOKYO_R50_LONG TOKYO_R50_SHORT TOKYO_R30_DIR TOKYO_R30_LONG TOKYO_R30_SHORT TOKYO_LAND CMA_LAT CMA_LON CMA_CAT CMA_WIND CMA_PRES HKO_LAT HKO_LON HKO_CAT HKO_WIND HKO_PRES NEWDELHI_LAT NEWDELHI_LON NEWDELHI_GRADE NEWDELHI_WIND NEWDELHI_PRES NEWDELHI_CI NEWDELHI_DP NEWDELHI_POCI REUNION_LAT REUNION_LON REUNION_TYPE REUNION_WIND REUNION_PRES REUNION_TNUM REUNION_CI REUNION_RMW REUNION_R34_NE REUNION_R34_SE REUNION_R34_SW REUNION_R34_NW REUNION_R50_NE REUNION_R50_SE REUNION_R50_SW REUNION_R50_NW REUNION_R64_NE REUNION_R64_SE REUNION_R64_SW REUNION_R64_NW BOM_LAT BOM_LON BOM_TYPE BOM_WIND BOM_PRES BOM_TNUM BOM_CI BOM_RMW BOM_R34_NE BOM_R34_SE BOM_R34_SW BOM_R34_NW BOM_R50_NE BOM_R50_SE BOM_R50_SW BOM_R50_NW BOM_R64_NE BOM_R64_SE BOM_R64_SW BOM_R64_NW BOM_ROCI BOM_POCI BOM_EYE BOM_POS_METHOD BOM_PRES_METHOD NADI_LAT NADI_LON NADI_CAT NADI_WIND NADI_PRES WELLINGTON_LAT WELLINGTON_LON WELLINGTON_WIND WELLINGTON_PRES DS824_LAT DS824_LON DS824_STAGE DS824_WIND DS824_PRES TD9636_LAT TD9636_LON TD9636_STAGE TD9636_WIND TD9636_PRES TD9635_LAT TD9635_LON TD9635_WIND TD9635_PRES TD9635_ROCI NEUMANN_LAT NEUMANN_LON NEUMANN_CLASS NEUMANN_WIND NEUMANN_PRES MLC_LAT MLC_LON MLC_CLASS MLC_WIND MLC_PRES USA_GUST BOM_GUST BOM_GUST_PER REUNION_GUST REUNION_GUST_PER USA_SEAHGT USA_SEARAD_NE USA_SEARAD_SE USA_SEARAD_SW USA_SEARAD_NW STORM_SPEED STORM_DIR
1939197N15131 1939 34 WP MM NOT_NAMED 1939-07-16 10:00:00 NR 15.2000 131.100 main 692 684 __________O___ -1 15.2000 131.100 7 10 315
1939197N15131 1939 34 WP MM NOT_NAMED 1939-07-16 12:00:00 NR 15.4395 130.851 main 684 666 __________P___ -1 15.4395 130.851 7 10 315
1939197N15131 1939 34 WP MM NOT_NAMED 1939-07-16 15:00:00 NR 15.8025 130.476 main 673 660 __________P___ -1 15.8025 130.476 7 10 316
1939197N15131 1939 34 WP MM NOT_NAMED 1939-07-16 18:00:00 NR 16.1756 130.100 main 664 639 __________P___ -1 16.1756 130.100 7 11 317
1939197N15131 1939 34 WP MM NOT_NAMED 1939-07-16 21:00:00 NR 16.5653 129.725 main 644 639 __________P___ -1 16.5653 129.725 7 11 318
1939197N15131 1939 34 WP MM NOT_NAMED 1939-07-16 22:00:00 NR 16.7000 129.600 main 639 632 __________O___ -1 16.7000 129.600 7 11 319
1939197N15131 1939 34 WP MM NOT_NAMED 1939-07-17 00:00:00 NR 16.9771 129.351 main 638 622 __________P___ -1 16.9771 129.351 7 11 320
1939197N15131 1939 34 WP MM NOT_NAMED 1939-07-17 03:00:00 NR 17.4057 128.990 main 629 626 __________P___ -1 17.4057 128.990 7 11 323
1939197N15131 1939 34 WP MM NOT_NAMED 1939-07-17 06:00:00 NR 17.8384 128.660 main 634 633 __________P___ -1 17.8384 128.660 7 10 326
1939197N15131 1939 34 WP MM NOT_NAMED 1939-07-17 09:00:00 NR 18.2626 128.379 main 641 631 __________P___ -1 18.2626 128.379 7 10 329
1939197N15131 1939 34 WP MM NOT_NAMED 1939-07-17 10:00:00 NR 18.4000 128.300 main 633 612 __________O___ -1 18.4000 128.300 3 9 333
1939197N15131 1939 34 WP MM NOT_NAMED 1939-07-17 12:00:00 NR 18.6795 128.150 main 612 603 __________P___ -1 18.6795 128.150 3 9 336
1939197N15131 1939 34 WP MM NOT_NAMED 1939-07-17 15:00:00 NR 19.0869 127.975 main 605 596 __________P___ -1 19.0869 127.975 3 8 341
1939197N15131 1939 34 WP MM NOT_NAMED 1939-07-17 18:00:00 NR 19.4659 127.860 main 601 591 __________P___ -1 19.4659 127.860 3 7 347
1939197N15131 1939 34 WP MM NOT_NAMED 1939-07-17 21:00:00 NR 19.8009 127.805 main 598 598 __________P___ -1 19.8009 127.805 3 7 353
1939197N15131 1939 34 WP MM NOT_NAMED 1939-07-17 22:00:00 NR 19.9000 127.800 main 601 601 __________O___ -1 19.9000 127.800 4 6 0
1939197N15131 1939 34 WP MM NOT_NAMED 1939-07-18 00:00:00 NR 20.0759 127.804 main 607 607 __________P___ -1 20.0759 127.804 4 5 8
1939197N15131 1939 34 WP MM NOT_NAMED 1939-07-18 03:00:00 NR 20.2957 127.861 main 624 624 __________P___ -1 20.2957 127.861 4 4 20
1939197N15131 1939 34 WP MM NOT_NAMED 1939-07-18 06:00:00 NR 20.4792 127.956 main 642 642 __________P___ -1 20.4792 127.956 4 4 28
1939197N15131 1939 34 WP MM NOT_NAMED 1939-07-18 09:00:00 NR 20.6453 128.065 main 655 659 __________P___ -1 20.6453 128.065 4 4 32
1939197N15131 1939 34 WP MM NOT_NAMED 1939-07-18 10:00:00 NR 20.7000 128.100 main 659 659 __________O___ -1 20.7000 128.100 4 4 46
1939197N15131 1939 34 WP MM NOT_NAMED 1939-07-18 12:00:00 NR 20.7646 128.201 main 673 673 __________P___ -1 20.7646 128.201 4 3 57
1939197N15131 1939 34 WP MM NOT_NAMED 1939-07-18 15:00:00 NR 20.8537 128.355 main 697 697 __________P___ -1 20.8537 128.355 4 3 46
1939197N15131 1939 34 WP MM NOT_NAMED 1939-07-18 18:00:00 NR 20.9978 128.455 main 711 710 __________P___ -1 20.9978 128.455 4 4 11
1939197N15131 1939 34 WP MM NOT_NAMED 1939-07-18 21:00:00 NR 21.2689 128.441 main 715 715 __________P___ -1 21.2689 128.441 4 6 353
1939197N15131 1939 34 WP MM NOT_NAMED 1939-07-18 22:00:00 NR 21.4000 128.400 main 720 710 __________O___ -1 21.4000 128.400 4 11 339
1939197N15131 1939 34 WP MM NOT_NAMED 1939-07-19 00:00:00 NR 21.7658 128.243 main 710 651 __________P___ -1 21.7658 128.243 4 14 335
1939197N15131 1939 34 WP MM NOT_NAMED 1939-07-19 03:00:00 NR 22.4535 127.880 main 651 577 __________P___ -1 22.4535 127.880 4 17 332
1939197N15131 1939 34 WP MM NOT_NAMED 1939-07-19 06:00:00 NR 23.2381 127.409 main 577 507 __________P___ -1 23.2381 127.409 4 18 330
1939197N15131 1939 34 WP MM NOT_NAMED 1939-07-19 09:00:00 NR 24.0415 126.880 main 507 481 __________P___ -1 24.0415 126.880 4 19 329
1939197N15131 1939 34 WP MM NOT_NAMED 1939-07-19 10:00:00 NR 24.3000 126.700 main 481 444 __________O___ -1 24.3000 126.700 4 18 328
1939197N15131 1939 34 WP MM NOT_NAMED 1939-07-19 12:00:00 NR 24.7952 126.358 main 444 385 __________P___ -1 24.7952 126.358 4 18 327
1939197N15131 1939 34 WP MM NOT_NAMED 1939-07-19 15:00:00 NR 25.5201 125.820 main 385 352 __________P___ -1 25.5201 125.820 4 17 325
1939197N15131 1939 34 WP MM NOT_NAMED 1939-07-19 18:00:00 NR 26.1844 125.277 main 356 338 __________P___ -1 26.1844 125.277 4 16 322
1939197N15131 1939 34 WP MM NOT_NAMED 1939-07-19 21:00:00 NR 26.7442 124.761 main 338 334 __________P___ -1 26.7442 124.761 4 14 320
1939197N15131 1939 34 WP MM NOT_NAMED 1939-07-19 22:00:00 NR 26.9000 124.600 main 334 297 __________O___ -1 26.9000 124.600 4 11 316
1939197N15131 1939 34 WP MM NOT_NAMED 1939-07-20 00:00:00 NR 27.1488 124.318 main 297 247 __________P___ -1 27.1488 124.318 4 9 311
1939197N15131 1939 34 WP MM NOT_NAMED 1939-07-20 03:00:00 NR 27.4154 123.936 main 247 211 __________P___ -1 27.4154 123.936 4 8 304
1939197N15131 1939 34 WP MM NOT_NAMED 1939-07-20 06:00:00 NR 27.5989 123.580 main 211 170 __________P___ -1 27.5989 123.580 4 7 298
1939197N15131 1939 34 WP MM NOT_NAMED 1939-07-20 09:00:00 NR 27.7489 123.223 main 170 157 __________P___ -1 27.7489 123.223 4 7 295
1939197N15131 1939 34 WP MM NOT_NAMED 1939-07-20 10:00:00 NR 27.8000 123.100 main 157 134 __________O___ -1 27.8000 123.100 4 7 302
1939197N15131 1939 34 WP MM NOT_NAMED 1939-07-20 12:00:00 NR 27.9373 122.882 main 134 90 __________P___ -1 27.9373 122.882 4 7 304
1939197N15131 1939 34 WP MM NOT_NAMED 1939-07-20 15:00:00 NR 28.1372 122.544 main 90 48 __________P___ -1 28.1372 122.544 4 8 301
1939197N15131 1939 34 WP MM NOT_NAMED 1939-07-20 18:00:00 NR 28.3344 122.141 main 48 9 __________P___ -1 28.3344 122.141 4 9 296
1939197N15131 1939 34 WP MM NOT_NAMED 1939-07-20 21:00:00 NR 28.5330 121.614 main 9 0 __________P___ -1 28.5330 121.614 4 11 292
1939197N15131 1939 34 WP MM NOT_NAMED 1939-07-20 22:00:00 NR 28.6000 121.400 main 0 0 __________O___ -1 28.6000 121.400 7 13 289
1939197N15131 1939 34 WP MM NOT_NAMED 1939-07-21 00:00:00 NR 28.7497 120.903 main 0 0 __________P___ -1 28.7497 120.903 7 15 287
1939197N15131 1939 34 WP MM NOT_NAMED 1939-07-21 03:00:00 NR 28.9738 120.026 main 0 0 __________P___ -1 28.9738 120.026 7 17 285
1939197N15131 1939 34 WP MM NOT_NAMED 1939-07-21 06:00:00 NR 29.1809 119.030 main 0 0 __________P___ -1 29.1809 119.030 7 18 282
1939197N15131 1939 34 WP MM NOT_NAMED 1939-07-21 09:00:00 NR 29.3532 117.963 main 0 0 __________P___ -1 29.3532 117.963 7 19 280
1939197N15131 1939 34 WP MM NOT_NAMED 1939-07-21 10:00:00 NR 29.4000 117.600 main 0 0 __________O___ -1 29.4000 117.600 7 19 277
1939197N15131 1939 34 WP MM NOT_NAMED 1939-07-21 12:00:00 NR 29.4756 116.871 main 0 0 __________P___ -1 29.4756 116.871 7 19 275
1939197N15131 1939 34 WP MM NOT_NAMED 1939-07-21 15:00:00 NR 29.5497 115.773 main 0 0 __________P___ -1 29.5497 115.773 7 19 273
1939197N15131 1939 34 WP MM NOT_NAMED 1939-07-21 18:00:00 NR 29.5870 114.671 main 0 0 __________P___ -1 29.5870 114.671 7 19 271
1939197N15131 1939 34 WP MM NOT_NAMED 1939-07-21 21:00:00 NR 29.5994 113.568 main 0 0 __________P___ -1 29.5994 113.568 7 19 271
1939197N15131 1939 34 WP MM NOT_NAMED 1939-07-21 22:00:00 NR 29.6000 113.200 main 0 __________O___ -1 29.6000 113.200 7 19 270

Digital Typhoon Data and Search

About IBTrACS Database

This database is a web-friendly format of International Best Track Archive for Climate Stewardship (IBTrACS), a global best track data archive curated by NOAA dating back to 1842.

Updated: 2021-12-06